Terminal Aerodrome Forecast
Issued by NWS

Home | Current Version | Previous Version | Text Only | Print | Product List | Glossary On
Versions: 1 2 3 4 5 6 7 8 9 10 11 12 13 14 15 16 17 18
709
FTUS41 KCLE 180027 AAA
TAFFDY
TAF AMD
KFDY 180027Z 1800/1824 18006KT P6SM SCT028 OVC045
      TEMPO 1800/1804 BKN028
     FM180800 22008KT P6SM OVC025
     FM181000 22008KT P6SM OVC015
      TEMPO 1810/1814 2SM BR OVC008
     FM181600 22008KT 5SM BR OVC025
     FM182100 23010KT 5SM BR OVC012=

USA.gov is the U.S. government's official web portal to all federal, state and local government web resources and services.